Terminal Aerodrome Forecast
Issued by NWS

Home | Current Version | Previous Version | Text Only | Print | Product List | Glossary On
Versions: 1 2 3 4 5 6 7 8 9 10 11 12 13 14 15 16 17 18 19
041
FTUS46 KMTR 281729
TAFMRY
TAF
KMRY 281729Z 2818/2918 22008KT P6SM BKN012
     FM281830 28011KT P6SM SKC
     FM282100 27012KT P6SM SKC
     FM290100 26010KT P6SM OVC007
     FM290300 24008KT 6SM BR OVC003
     FM291400 25005KT 3SM BR OVC003
     FM291700 27007KT P6SM OVC008=

USA.gov is the U.S. government's official web portal to all federal, state and local government web resources and services.